createdAt,value
2023-03-15T00:02:03.923Z,2.45
2023-03-15T00:04:34.816Z,2.47
2023-03-15T00:07:01.799Z,2.40
2023-03-15T00:09:28.685Z,2.20
2023-03-15T00:11:55.666Z,2.35
2023-03-15T00:14:22.542Z,2.08
2023-03-15T00:16:49.933Z,2.60
2023-03-15T00:19:17.101Z,2.25
2023-03-15T00:21:44.491Z,2.45
2023-03-15T00:24:11.597Z,2.50
2023-03-15T00:26:38.995Z,3.13
2023-03-15T00:29:08.717Z,2.03
2023-03-15T00:31:36.100Z,2.38
2023-03-15T00:34:03.164Z,1.95
2023-03-15T00:36:31.977Z,2.35
2023-03-15T00:38:58.829Z,1.95
2023-03-15T00:41:25.904Z,2.10
2023-03-15T00:43:53.093Z,2.20
2023-03-15T00:46:20.699Z,2.15
2023-03-15T00:48:49.471Z,2.85
2023-03-15T00:51:19.482Z,2.80
2023-03-15T00:53:47.600Z,2.47
2023-03-15T00:56:21.548Z,2.15
2023-03-15T00:58:48.953Z,2.25
2023-03-15T01:01:19.320Z,2.42
2023-03-15T01:03:46.680Z,2.70
2023-03-15T01:06:15.909Z,2.78
2023-03-15T01:08:44.028Z,2.33
2023-03-15T01:11:14.196Z,2.42
2023-03-15T01:13:41.338Z,2.35
2023-03-15T01:16:10.277Z,2.58
2023-03-15T01:18:38.046Z,2.63
2023-03-15T01:21:09.736Z,2.65
2023-03-15T01:23:36.751Z,2.25
2023-03-15T01:26:05.640Z,2.35
2023-03-15T01:28:33.379Z,2.30
2023-03-15T01:31:00.401Z,1.85
2023-03-15T01:33:28.019Z,2.38
2023-03-15T01:36:06.268Z,2.10
2023-03-15T01:38:34.688Z,2.25
2023-03-15T01:41:01.806Z,1.95
2023-03-15T01:43:31.917Z,1.65
2023-03-15T01:46:05.100Z,1.80
2023-03-15T01:48:44.644Z,1.95
2023-03-15T01:51:19.010Z,1.85
2023-03-15T01:53:54.455Z,2.35
2023-03-15T01:56:23.317Z,1.85
2023-03-15T01:58:51.828Z,1.80
2023-03-15T02:01:20.428Z,1.52
2023-03-15T02:03:55.100Z,1.45
2023-03-15T02:06:26.181Z,1.48
2023-03-15T02:09:00.103Z,1.52
2023-03-15T02:11:33.689Z,1.10
2023-03-15T02:14:02.381Z,1.38
2023-03-15T02:16:31.238Z,1.30
2023-03-15T02:19:02.859Z,0.90
2023-03-15T02:22:00.620Z,1.10
2023-03-15T02:24:33.728Z,1.20
2023-03-15T02:27:00.827Z,1.27
2023-03-15T02:29:28.905Z,1.48
2023-03-15T02:31:57.974Z,1.13
2023-03-15T02:34:25.931Z,1.13
2023-03-15T02:36:54.145Z,1.27
2023-03-15T02:39:22.366Z,1.00
2023-03-15T02:41:58.871Z,1.52
2023-03-15T02:44:37.336Z,1.45
2023-03-15T02:47:19.580Z,1.25
2023-03-15T02:49:51.012Z,1.42
2023-03-15T02:52:18.019Z,1.33
2023-03-15T02:54:44.894Z,1.40
2023-03-15T02:57:13.319Z,1.48
2023-03-15T02:59:42.331Z,1.38
2023-03-15T03:02:11.779Z,1.67
2023-03-15T03:04:39.460Z,1.50
2023-03-15T03:07:06.406Z,1.30
2023-03-15T03:09:40.727Z,1.33
2023-03-15T03:12:09.134Z,1.35
2023-03-15T03:14:36.009Z,1.63
2023-03-15T03:17:03.944Z,1.80
2023-03-15T03:19:30.838Z,1.50
2023-03-15T03:21:58.105Z,1.70
2023-03-15T03:24:25.886Z,2.00
2023-03-15T03:26:57.968Z,1.77
2023-03-15T03:29:27.986Z,2.15
2023-03-15T03:31:57.212Z,1.90
2023-03-15T03:34:24.176Z,1.85
2023-03-15T03:36:51.560Z,1.98
2023-03-15T03:39:27.693Z,1.63
2023-03-15T03:41:55.010Z,1.70
2023-03-15T03:44:21.867Z,1.70
2023-03-15T03:46:49.345Z,1.80
2023-03-15T03:49:16.235Z,1.83
2023-03-15T03:51:43.134Z,1.60
2023-03-15T03:54:09.984Z,1.85
2023-03-15T03:56:37.976Z,2.05
2023-03-15T03:59:05.219Z,1.70
2023-03-15T04:01:49.141Z,1.75
2023-03-15T04:04:16.053Z,1.95
2023-03-15T04:06:45.780Z,1.90
2023-03-15T04:09:15.174Z,2.10
2023-03-15T04:11:44.434Z,1.70
2023-03-15T04:14:13.535Z,2.25
2023-03-15T04:16:42.036Z,1.52
2023-03-15T04:19:12.928Z,2.20
2023-03-15T04:21:47.463Z,1.73
2023-03-15T04:24:27.107Z,1.80
2023-03-15T04:27:26.311Z,2.03
2023-03-15T04:29:59.523Z,1.70
2023-03-15T04:32:45.402Z,1.92
2023-03-15T04:35:37.612Z,1.50
2023-03-15T04:38:27.056Z,1.70
2023-03-15T04:41:21.211Z,1.45
2023-03-15T04:44:00.811Z,2.03
2023-03-15T04:46:46.437Z,1.98
2023-03-15T04:49:30.022Z,2.13
2023-03-15T04:52:26.807Z,2.13
2023-03-15T04:55:02.650Z,1.90
2023-03-15T04:57:49.257Z,2.20
2023-03-15T05:00:33.520Z,1.80
2023-03-15T05:03:03.265Z,2.05
2023-03-15T05:05:49.094Z,1.85
2023-03-15T05:08:39.006Z,1.73
2023-03-15T05:11:24.803Z,2.95
2023-03-15T05:14:14.146Z,2.20
2023-03-15T05:16:49.444Z,2.30
2023-03-15T05:19:39.758Z,1.80
2023-03-15T05:22:28.747Z,2.38
2023-03-15T05:25:16.207Z,1.60
2023-03-15T05:28:04.608Z,1.95
2023-03-15T05:30:50.061Z,2.35
2023-03-15T05:33:46.769Z,2.13
2023-03-15T05:36:22.666Z,2.97
2023-03-15T05:39:16.760Z,2.10
2023-03-15T05:42:04.164Z,2.22
2023-03-15T05:44:48.581Z,2.40
2023-03-15T05:47:42.538Z,2.00
2023-03-15T05:50:24.215Z,2.47
2023-03-15T05:53:09.843Z,2.45
2023-03-15T05:55:47.099Z,2.20
2023-03-15T05:58:32.766Z,2.30
2023-03-15T06:01:04.072Z,2.20
2023-03-15T06:04:00.366Z,2.22
2023-03-15T06:06:33.505Z,2.20
2023-03-15T06:09:01.494Z,2.75
2023-03-15T06:11:28.962Z,2.40
2023-03-15T06:13:56.332Z,2.80
2023-03-15T06:16:46.086Z,2.50
2023-03-15T06:19:13.211Z,2.20
2023-03-15T06:21:40.058Z,2.30
2023-03-15T06:24:13.895Z,2.58
2023-03-15T06:26:41.422Z,2.95
2023-03-15T06:29:08.876Z,2.92
2023-03-15T06:31:35.906Z,2.67
2023-03-15T06:34:06.330Z,2.40
2023-03-15T06:36:34.762Z,2.70
2023-03-15T06:39:02.905Z,3.28
2023-03-15T06:41:30.029Z,3.05
2023-03-15T06:44:04.583Z,2.65
2023-03-15T06:46:31.692Z,3.45
2023-03-15T06:48:58.536Z,3.40
2023-03-15T06:51:26.510Z,3.47
2023-03-15T06:53:53.346Z,3.70
2023-03-15T06:56:21.235Z,3.28
2023-03-15T06:58:48.080Z,2.85
2023-03-15T07:01:15.710Z,2.80
2023-03-15T07:03:42.743Z,2.55
2023-03-15T07:06:09.889Z,2.17
2023-03-15T07:08:36.805Z,2.13
2023-03-15T07:11:04.037Z,2.85
2023-03-15T07:13:30.958Z,2.60
2023-03-15T07:15:57.965Z,2.70
2023-03-15T07:18:24.883Z,1.92
2023-03-15T07:20:59.213Z,2.28
2023-03-15T07:23:26.506Z,2.13
2023-03-15T07:25:55.629Z,2.15
2023-03-15T07:28:24.874Z,2.17
2023-03-15T07:31:02.659Z,2.10
2023-03-15T07:33:31.739Z,2.15
2023-03-15T07:35:58.825Z,1.90
2023-03-15T07:38:30.946Z,1.88
2023-03-15T07:40:58.730Z,2.08
2023-03-15T07:43:25.618Z,2.00
2023-03-15T07:46:06.226Z,2.85
2023-03-15T07:48:33.195Z,2.28
2023-03-15T07:51:00.097Z,2.50
2023-03-15T07:53:27.190Z,2.45
2023-03-15T07:55:54.455Z,2.05
2023-03-15T07:58:21.355Z,2.00
2023-03-15T08:00:48.388Z,2.33
2023-03-15T08:03:15.373Z,2.38
2023-03-15T08:05:42.215Z,2.10
2023-03-15T08:08:09.180Z,2.25
2023-03-15T08:10:36.021Z,1.90
2023-03-15T08:13:03.039Z,2.03
2023-03-15T08:15:30.205Z,1.92
2023-03-15T08:17:57.173Z,2.28
2023-03-15T08:20:23.970Z,1.90
2023-03-15T08:22:51.567Z,2.10
2023-03-15T08:25:22.120Z,1.80
2023-03-15T08:27:50.165Z,2.10
2023-03-15T08:30:18.188Z,2.40
2023-03-15T08:32:46.829Z,2.17
2023-03-15T08:35:16.012Z,1.63
2023-03-15T08:37:47.821Z,2.20
2023-03-15T08:40:19.004Z,2.30
2023-03-15T08:42:46.333Z,2.10
2023-03-15T08:45:13.241Z,2.08
2023-03-15T08:47:40.137Z,2.30
2023-03-15T08:50:10.932Z,2.13
2023-03-15T08:52:39.467Z,1.92
2023-03-15T08:55:07.333Z,3.15
2023-03-15T08:57:34.350Z,1.75
2023-03-15T09:00:07.365Z,1.73
2023-03-15T09:02:34.634Z,1.80
2023-03-15T09:05:01.536Z,2.15
2023-03-15T09:07:28.511Z,1.95
2023-03-15T09:09:55.345Z,2.65
2023-03-15T09:12:22.355Z,1.90
2023-03-15T09:14:49.207Z,1.85
2023-03-15T09:17:16.196Z,2.00
2023-03-15T09:19:43.017Z,2.55
2023-03-15T09:22:16.868Z,2.05
2023-03-15T09:24:52.609Z,1.98
2023-03-15T09:27:19.641Z,2.08
2023-03-15T09:29:46.604Z,2.00
2023-03-15T09:32:13.503Z,1.83
2023-03-15T09:34:42.277Z,1.98
2023-03-15T09:37:09.569Z,1.75
2023-03-15T09:39:36.538Z,1.95
2023-03-15T09:42:06.716Z,2.03
2023-03-15T09:44:48.325Z,2.25
2023-03-15T09:47:33.597Z,2.42
2023-03-15T09:50:03.390Z,2.00
2023-03-15T09:52:55.673Z,2.00
2023-03-15T09:55:27.220Z,2.00
2023-03-15T09:57:58.582Z,2.08
2023-03-15T10:00:55.020Z,1.90
2023-03-15T10:03:35.879Z,1.98
2023-03-15T10:06:10.634Z,1.77
2023-03-15T10:08:37.686Z,1.95
2023-03-15T10:11:15.883Z,1.50
2023-03-15T10:13:42.819Z,2.00
2023-03-15T10:16:12.767Z,1.90
2023-03-15T10:19:02.066Z,2.00
2023-03-15T10:21:41.678Z,1.80
2023-03-15T10:24:23.396Z,1.70
2023-03-15T10:26:52.462Z,2.40
2023-03-15T10:29:21.552Z,1.83
2023-03-15T10:31:48.671Z,1.90
2023-03-15T10:34:16.679Z,2.00
2023-03-15T10:36:49.996Z,2.10
2023-03-15T10:39:17.212Z,2.00
2023-03-15T10:41:46.798Z,1.75
2023-03-15T10:44:27.302Z,1.88
2023-03-15T10:47:05.023Z,1.95
2023-03-15T10:49:39.243Z,2.20
2023-03-15T10:52:07.033Z,2.20
2023-03-15T10:54:35.432Z,2.00
2023-03-15T10:57:04.296Z,1.98
2023-03-15T10:59:35.832Z,1.95
2023-03-15T11:02:11.818Z,1.90
2023-03-15T11:04:43.191Z,1.85
2023-03-15T11:07:13.544Z,1.55
2023-03-15T11:10:01.058Z,1.83
2023-03-15T11:12:30.034Z,1.80
2023-03-15T11:15:15.487Z,1.85
2023-03-15T11:17:48.781Z,2.50
2023-03-15T11:20:39.880Z,1.83
2023-03-15T11:23:25.306Z,2.20
2023-03-15T11:25:54.140Z,1.95
2023-03-15T11:28:25.868Z,2.28
2023-03-15T11:30:53.068Z,1.88
2023-03-15T11:33:51.442Z,2.15
2023-03-15T11:36:24.987Z,1.80
2023-03-15T11:38:54.857Z,1.48
2023-03-15T11:41:53.880Z,1.70
2023-03-15T11:44:23.639Z,1.70
2023-03-15T11:46:57.453Z,2.33
2023-03-15T11:49:37.237Z,2.00
2023-03-15T11:52:04.980Z,2.13
2023-03-15T11:54:32.437Z,2.00
2023-03-15T11:57:04.599Z,2.75
2023-03-15T11:59:37.838Z,2.35
2023-03-15T12:02:11.378Z,1.80
2023-03-15T12:04:46.635Z,1.88
2023-03-15T12:07:20.404Z,1.88
2023-03-15T12:09:56.021Z,2.10
2023-03-15T12:12:25.996Z,1.90
2023-03-15T12:15:02.184Z,2.10
2023-03-15T12:17:37.346Z,1.58
2023-03-15T12:20:37.884Z,1.63
2023-03-15T12:23:21.319Z,1.83
2023-03-15T12:25:57.829Z,1.92
2023-03-15T12:28:38.314Z,1.75
2023-03-15T12:31:09.051Z,1.58
2023-03-15T12:33:47.270Z,1.95
2023-03-15T12:36:23.024Z,1.80
2023-03-15T12:39:16.318Z,1.80
2023-03-15T12:41:49.870Z,2.22
2023-03-15T12:44:31.921Z,1.85
2023-03-15T12:47:03.663Z,2.20
2023-03-15T12:49:43.642Z,2.05
2023-03-15T12:52:16.241Z,1.60
2023-03-15T12:55:11.970Z,1.92
2023-03-15T12:57:50.380Z,1.88
2023-03-15T13:00:27.419Z,2.33
2023-03-15T13:03:06.291Z,1.80
2023-03-15T13:06:02.819Z,2.03
2023-03-15T13:08:31.136Z,2.03
2023-03-15T13:11:30.214Z,2.30
2023-03-15T13:14:32.430Z,2.05
2023-03-15T13:17:02.459Z,1.83
2023-03-15T13:19:39.310Z,2.13
2023-03-15T13:22:25.133Z,1.80
2023-03-15T13:27:51.709Z,2.10
2023-03-15T13:30:39.880Z,2.30
2023-03-15T13:33:28.793Z,2.40
2023-03-15T13:36:03.705Z,2.53
2023-03-15T13:38:43.251Z,2.40
2023-03-15T13:41:19.563Z,2.05
2023-03-15T13:43:48.753Z,1.92
2023-03-15T13:46:18.068Z,2.70
2023-03-15T13:48:47.121Z,2.10
2023-03-15T13:51:23.212Z,2.00
2023-03-15T13:53:53.480Z,2.10
2023-03-15T13:56:30.954Z,2.25
2023-03-15T13:59:02.519Z,1.83
2023-03-15T14:01:35.466Z,2.10
2023-03-15T14:04:07.482Z,1.90
2023-03-15T14:06:34.542Z,1.90
2023-03-15T14:09:11.718Z,1.83
2023-03-15T14:11:40.648Z,2.00
2023-03-15T14:14:28.714Z,1.95
2023-03-15T14:17:05.248Z,1.83
2023-03-15T14:19:35.401Z,1.80
2023-03-15T14:22:17.443Z,1.80
2023-03-15T14:24:49.346Z,1.85
2023-03-15T14:27:19.315Z,2.00
2023-03-15T14:30:11.044Z,1.80
2023-03-15T14:32:38.997Z,1.90
2023-03-15T14:35:22.947Z,1.92
2023-03-15T14:38:21.218Z,2.22
2023-03-15T14:40:49.055Z,1.85
2023-03-15T14:43:16.358Z,2.35
2023-03-15T14:45:46.366Z,1.90
2023-03-15T14:48:27.645Z,2.15
2023-03-15T14:50:55.404Z,2.30
2023-03-15T14:53:26.156Z,2.10
2023-03-15T14:55:53.074Z,2.08
2023-03-15T14:58:22.401Z,1.85
2023-03-15T15:00:52.536Z,2.38
2023-03-15T15:03:33.635Z,2.25
2023-03-15T15:06:02.565Z,2.42
2023-03-15T15:08:31.662Z,2.60
2023-03-15T15:10:58.906Z,2.30
2023-03-15T15:13:28.257Z,2.47
2023-03-15T15:15:57.003Z,2.65
2023-03-15T15:18:25.732Z,2.38
2023-03-15T15:20:55.976Z,2.35
2023-03-15T15:23:25.674Z,2.17
2023-03-15T15:25:57.353Z,2.55
2023-03-15T15:28:34.570Z,2.30
2023-03-15T15:31:03.765Z,2.33
2023-03-15T15:33:31.653Z,2.40
2023-03-15T15:35:58.888Z,2.63
2023-03-15T15:38:38.094Z,2.70
2023-03-15T15:41:05.608Z,2.35
2023-03-15T15:43:33.658Z,2.28
2023-03-15T15:46:01.843Z,2.30
2023-03-15T15:48:28.797Z,2.47
2023-03-15T15:50:55.761Z,2.40
2023-03-15T15:53:23.667Z,2.75
2023-03-15T15:55:50.661Z,2.53
2023-03-15T15:58:17.652Z,2.60
2023-03-15T16:00:44.854Z,2.70
2023-03-15T16:03:15.165Z,2.45
2023-03-15T16:05:42.775Z,2.20
2023-03-15T16:08:20.734Z,1.90
2023-03-15T16:10:47.826Z,2.33
2023-03-15T16:13:14.833Z,2.30
2023-03-15T16:15:41.796Z,2.10
2023-03-15T16:18:12.714Z,2.13
2023-03-15T16:20:40.923Z,2.45
2023-03-15T16:23:12.058Z,2.05
2023-03-15T16:25:41.663Z,2.08
2023-03-15T16:28:09.988Z,2.20
2023-03-15T16:30:36.957Z,2.20
2023-03-15T16:33:09.878Z,2.13
2023-03-15T16:35:37.271Z,2.10
2023-03-15T16:38:07.881Z,2.53
2023-03-15T16:40:35.305Z,2.72
2023-03-15T16:43:02.966Z,2.28
2023-03-15T16:45:29.972Z,1.90
2023-03-15T16:47:58.189Z,2.42
2023-03-15T16:50:25.925Z,2.50
2023-03-15T16:52:55.606Z,2.80
2023-03-15T16:55:28.866Z,2.25
2023-03-15T16:57:56.123Z,2.10
2023-03-15T17:00:23.487Z,2.50
2023-03-15T17:02:52.392Z,2.65
2023-03-15T17:05:21.181Z,2.50
2023-03-15T17:07:50.108Z,2.38
2023-03-15T17:10:31.421Z,2.58
2023-03-15T17:13:02.705Z,2.40
2023-03-15T17:15:30.876Z,2.78
2023-03-15T17:17:58.021Z,4.05
2023-03-15T17:20:29.988Z,27.98
2023-03-15T17:23:01.395Z,4.15
2023-03-15T17:25:30.014Z,3.00
2023-03-15T17:27:57.040Z,2.63
2023-03-15T17:30:35.580Z,2.95
2023-03-15T17:33:03.583Z,2.75
2023-03-15T17:35:35.042Z,3.63
2023-03-15T17:38:13.869Z,3.13
2023-03-15T17:40:42.182Z,2.90
2023-03-15T17:43:13.335Z,2.60
2023-03-15T17:45:40.364Z,2.20
2023-03-15T17:48:08.088Z,3.03
2023-03-15T17:50:36.136Z,2.90
2023-03-15T17:53:07.010Z,2.42
2023-03-15T17:55:34.958Z,3.25
2023-03-15T17:58:03.911Z,3.63
2023-03-15T18:00:32.956Z,3.10
2023-03-15T18:03:01.097Z,2.10
2023-03-15T18:05:30.309Z,2.58
2023-03-15T18:08:00.594Z,2.97
2023-03-15T18:10:38.108Z,2.70
2023-03-15T18:13:05.831Z,3.08
2023-03-15T18:15:34.126Z,3.05
2023-03-15T18:18:01.528Z,3.10
2023-03-15T18:20:28.863Z,3.67
2023-03-15T18:22:56.135Z,3.22
2023-03-15T18:25:26.120Z,3.90
2023-03-15T18:27:53.649Z,3.55
2023-03-15T18:30:23.382Z,3.33
2023-03-15T18:32:51.987Z,3.20
2023-03-15T18:35:21.952Z,3.40
2023-03-15T18:37:49.224Z,3.15
2023-03-15T18:40:18.826Z,2.90
2023-03-15T18:42:46.062Z,3.20
2023-03-15T18:45:28.370Z,3.50
2023-03-15T18:47:55.441Z,3.70
2023-03-15T18:50:22.759Z,3.58
2023-03-15T18:52:49.926Z,4.53
2023-03-15T18:55:19.209Z,4.70
2023-03-15T18:57:46.444Z,4.30
2023-03-15T19:00:17.216Z,4.20
2023-03-15T19:02:46.182Z,4.43
2023-03-15T19:05:14.469Z,4.80
2023-03-15T19:07:42.245Z,4.30
2023-03-15T19:10:20.421Z,4.30
2023-03-15T19:12:48.349Z,4.57
2023-03-15T19:15:17.624Z,4.22
2023-03-15T19:17:46.270Z,5.20
2023-03-15T19:20:15.901Z,4.93
2023-03-15T19:22:43.063Z,4.68
2023-03-15T19:25:14.191Z,5.18
2023-03-15T19:27:42.182Z,5.05
2023-03-15T19:30:12.352Z,5.07
2023-03-15T19:32:40.553Z,4.38
2023-03-15T19:35:07.983Z,4.43
2023-03-15T19:37:35.742Z,4.85
2023-03-15T19:40:04.076Z,4.45
2023-03-15T19:42:31.444Z,4.43
2023-03-15T19:44:58.675Z,5.00
2023-03-15T19:47:25.658Z,5.00
2023-03-15T19:49:52.458Z,4.03
2023-03-15T19:52:19.674Z,5.20
2023-03-15T19:54:47.583Z,4.90
2023-03-15T19:57:14.482Z,4.00
2023-03-15T19:59:41.654Z,3.80
2023-03-15T20:02:12.664Z,4.70
2023-03-15T20:04:39.807Z,4.60
2023-03-15T20:07:07.008Z,3.53
2023-03-15T20:09:38.908Z,4.00
2023-03-15T20:12:07.130Z,4.30
2023-03-15T20:14:34.223Z,4.40
2023-03-15T20:17:01.617Z,4.25
2023-03-15T20:19:28.474Z,4.18
2023-03-15T20:21:56.243Z,3.90
2023-03-15T20:24:23.175Z,4.00
2023-03-15T20:26:51.694Z,4.43
2023-03-15T20:29:18.802Z,4.07
2023-03-15T20:31:45.771Z,4.85
2023-03-15T20:34:12.600Z,4.68
2023-03-15T20:36:39.524Z,4.68
2023-03-15T20:39:06.408Z,5.00
2023-03-15T20:41:33.377Z,4.80
2023-03-15T20:44:00.520Z,5.32
2023-03-15T20:46:27.628Z,4.85
2023-03-15T20:48:54.528Z,4.80
2023-03-15T20:51:21.642Z,4.90
2023-03-15T20:53:48.549Z,4.97
2023-03-15T20:56:16.715Z,4.53
2023-03-15T20:58:44.420Z,5.28
2023-03-15T21:01:17.163Z,4.55
2023-03-15T21:03:45.737Z,4.72
2023-03-15T21:06:15.953Z,4.10
2023-03-15T21:08:44.121Z,5.10
2023-03-15T21:11:11.631Z,5.18
2023-03-15T21:13:42.079Z,4.72
2023-03-15T21:16:11.196Z,4.78
2023-03-15T21:18:47.666Z,4.93
2023-03-15T21:21:17.290Z,5.68
2023-03-15T21:23:45.001Z,5.47
2023-03-15T21:26:13.701Z,5.22
2023-03-15T21:28:41.740Z,4.95
2023-03-15T21:31:10.064Z,4.82
2023-03-15T21:33:40.306Z,4.63
2023-03-15T21:36:08.467Z,5.30
2023-03-15T21:38:38.618Z,5.28
2023-03-15T21:41:09.910Z,4.85
2023-03-15T21:43:37.987Z,5.00
2023-03-15T21:46:08.379Z,5.32
2023-03-15T21:48:37.455Z,4.80
2023-03-15T21:51:05.501Z,5.05
2023-03-15T21:53:35.722Z,4.47
2023-03-15T21:56:04.065Z,4.85
2023-03-15T21:58:31.353Z,4.50
2023-03-15T22:01:04.616Z,4.78
2023-03-15T22:03:32.793Z,4.50
2023-03-15T22:05:59.628Z,4.90
2023-03-15T22:08:27.393Z,4.70
2023-03-15T22:10:56.356Z,5.55
2023-03-15T22:13:23.895Z,5.00
2023-03-15T22:15:52.402Z,5.53
2023-03-15T22:18:19.988Z,5.07
2023-03-15T22:20:48.602Z,5.15
2023-03-15T22:23:15.847Z,5.15
2023-03-15T22:25:42.669Z,5.72
2023-03-15T22:28:09.970Z,5.40
2023-03-15T22:30:36.950Z,6.00
2023-03-15T22:33:04.542Z,5.45
2023-03-15T22:35:31.530Z,5.55
2023-03-15T22:37:58.808Z,5.50
2023-03-15T22:40:27.950Z,6.25
2023-03-15T22:42:57.249Z,5.55
2023-03-15T22:45:26.014Z,5.68
2023-03-15T22:47:53.227Z,5.95
2023-03-15T22:50:21.043Z,6.32
2023-03-15T22:52:48.225Z,5.70
2023-03-15T22:55:15.090Z,6.32
2023-03-15T22:57:41.964Z,6.68
2023-03-15T23:00:14.043Z,6.65
2023-03-15T23:02:44.802Z,7.35
2023-03-15T23:05:13.540Z,6.28
2023-03-15T23:07:41.382Z,7.22
2023-03-15T23:10:10.572Z,6.75
2023-03-15T23:12:37.506Z,7.22
2023-03-15T23:15:05.246Z,6.70
2023-03-15T23:17:32.245Z,6.85
2023-03-15T23:19:59.188Z,7.90
2023-03-15T23:22:26.296Z,6.97
2023-03-15T23:24:57.832Z,7.50
2023-03-15T23:27:26.241Z,7.78
2023-03-15T23:29:54.849Z,7.20
2023-03-15T23:32:23.986Z,6.93
2023-03-15T23:34:51.118Z,7.63
2023-03-15T23:37:18.062Z,7.78
2023-03-15T23:39:45.161Z,7.28
2023-03-15T23:42:12.459Z,7.85
2023-03-15T23:44:39.356Z,7.90
2023-03-15T23:47:06.639Z,8.68
2023-03-15T23:49:34.174Z,8.45
2023-03-15T23:52:05.787Z,8.80
2023-03-15T23:54:39.570Z,8.77
2023-03-15T23:57:07.787Z,8.50
2023-03-15T23:59:38.524Z,8.95
